sensor_id;sensor_type;location;lat;lon;timestamp;pressure;altitude;pressure_sealevel;temperature;humidity
55277;BME280;41136;51.478;-2.610;2024-03-29T00:00:02;97300.17;;;10.10;100.00
55277;BME280;41136;51.478;-2.610;2024-03-29T00:02:27;97300.56;;;10.04;100.00
55277;BME280;41136;51.478;-2.610;2024-03-29T00:04:52;97298.28;;;9.12;100.00
55277;BME280;41136;51.478;-2.610;2024-03-29T00:07:18;97294.82;;;9.32;100.00
55277;BME280;41136;51.478;-2.610;2024-03-29T00:09:43;97287.90;;;9.49;100.00
55277;BME280;41136;51.478;-2.610;2024-03-29T00:12:08;97287.88;;;9.52;100.00
55277;BME280;41136;51.478;-2.610;2024-03-29T00:14:34;97286.50;;;9.60;100.00
55277;BME280;41136;51.478;-2.610;2024-03-29T00:16:59;97280.61;;;9.25;100.00
55277;BME280;41136;51.478;-2.610;2024-03-29T00:19:24;97276.85;;;9.75;100.00
55277;BME280;41136;51.478;-2.610;2024-03-29T00:21:50;97276.39;;;9.27;100.00
55277;BME280;41136;51.478;-2.610;2024-03-29T00:24:15;97279.81;;;9.85;100.00
55277;BME280;41136;51.478;-2.610;2024-03-29T00:26:41;97273.31;;;9.38;100.00
55277;BME280;41136;51.478;-2.610;2024-03-29T00:29:06;97268.12;;;9.19;100.00
55277;BME280;41136;51.478;-2.610;2024-03-29T00:31:31;97267.34;;;9.36;100.00
55277;BME280;41136;51.478;-2.610;2024-03-29T00:33:57;97268.84;;;9.61;100.00
55277;BME280;41136;51.478;-2.610;2024-03-29T00:36:22;97271.10;;;9.52;100.00
55277;BME280;41136;51.478;-2.610;2024-03-29T00:38:48;97268.14;;;9.68;100.00
55277;BME280;41136;51.478;-2.610;2024-03-29T00:41:13;97269.72;;;9.07;100.00
55277;BME280;41136;51.478;-2.610;2024-03-29T00:43:39;97273.14;;;9.48;100.00
55277;BME280;41136;51.478;-2.610;2024-03-29T00:46:04;97277.95;;;9.83;100.00
55277;BME280;41136;51.478;-2.610;2024-03-29T00:48:29;97271.73;;;9.27;100.00
55277;BME280;41136;51.478;-2.610;2024-03-29T00:50:55;97274.61;;;9.55;100.00
55277;BME280;41136;51.478;-2.610;2024-03-29T00:53:20;97273.01;;;9.89;100.00
55277;BME280;41136;51.478;-2.610;2024-03-29T01:01:53;97280.38;;;9.35;98.58
55277;BME280;41136;51.478;-2.610;2024-03-29T01:04:19;97282.81;;;9.90;98.63
55277;BME280;41136;51.478;-2.610;2024-03-29T01:06:44;97287.97;;;9.18;98.68
55277;BME280;41136;51.478;-2.610;2024-03-29T01:09:10;97287.65;;;9.38;99.52
55277;BME280;41136;51.478;-2.610;2024-03-29T01:11:35;97293.39;;;9.81;99.96
55277;BME280;41136;51.478;-2.610;2024-03-29T01:14:00;97291.18;;;10.07;100.00
55277;BME280;41136;51.478;-2.610;2024-03-29T01:16:25;97291.49;;;9.47;100.00
55277;BME280;41136;51.478;-2.610;2024-03-29T01:18:51;97292.73;;;9.50;100.00
55277;BME280;41136;51.478;-2.610;2024-03-29T01:21:16;97298.89;;;9.35;100.00
55277;BME280;41136;51.478;-2.610;2024-03-29T01:23:42;97302.04;;;8.90;100.00
55277;BME280;41136;51.478;-2.610;2024-03-29T01:26:07;97305.05;;;9.11;100.00
55277;BME280;41136;51.478;-2.610;2024-03-29T01:28:33;97300.56;;;9.25;100.00
55277;BME280;41136;51.478;-2.610;2024-03-29T01:30:58;97299.09;;;9.24;100.00
55277;BME280;41136;51.478;-2.610;2024-03-29T01:33:24;97301.43;;;9.26;100.00
55277;BME280;41136;51.478;-2.610;2024-03-29T01:35:50;97302.02;;;9.24;100.00
55277;BME280;41136;51.478;-2.610;2024-03-29T01:38:15;97298.77;;;9.20;100.00
55277;BME280;41136;51.478;-2.610;2024-03-29T01:40:40;97300.07;;;8.91;100.00
55277;BME280;41136;51.478;-2.610;2024-03-29T01:43:05;97298.35;;;8.78;100.00
55277;BME280;41136;51.478;-2.610;2024-03-29T01:45:31;97298.18;;;8.96;100.00
55277;BME280;41136;51.478;-2.610;2024-03-29T01:47:56;97300.22;;;8.88;100.00
55277;BME280;41136;51.478;-2.610;2024-03-29T01:50:21;97297.80;;;8.87;100.00
55277;BME280;41136;51.478;-2.610;2024-03-29T01:52:47;97294.93;;;9.02;100.00
55277;BME280;41136;51.478;-2.610;2024-03-29T01:55:12;97292.26;;;8.79;100.00
55277;BME280;41136;51.478;-2.610;2024-03-29T01:57:38;97292.04;;;9.13;100.00
55277;BME280;41136;51.478;-2.610;2024-03-29T02:00:04;97291.53;;;9.23;100.00
55277;BME280;41136;51.478;-2.610;2024-03-29T02:02:28;97283.25;;;9.10;100.00
55277;BME280;41136;51.478;-2.610;2024-03-29T02:04:54;97285.43;;;9.38;100.00
55277;BME280;41136;51.478;-2.610;2024-03-29T02:07:19;97283.85;;;9.59;100.00
55277;BME280;41136;51.478;-2.610;2024-03-29T02:09:44;97280.44;;;9.76;100.00
55277;BME280;41136;51.478;-2.610;2024-03-29T02:12:10;97281.17;;;9.49;100.00
55277;BME280;41136;51.478;-2.610;2024-03-29T02:14:35;97277.16;;;9.95;100.00
55277;BME280;41136;51.478;-2.610;2024-03-29T02:17:00;97276.66;;;9.98;100.00
55277;BME280;41136;51.478;-2.610;2024-03-29T02:19:26;97274.64;;;9.65;100.00
55277;BME280;41136;51.478;-2.610;2024-03-29T02:21:54;97264.27;;;9.23;100.00
55277;BME280;41136;51.478;-2.610;2024-03-29T02:24:17;97276.16;;;9.62;100.00
55277;BME280;41136;51.478;-2.610;2024-03-29T02:26:42;97275.93;;;9.57;100.00
55277;BME280;41136;51.478;-2.610;2024-03-29T02:29:08;97278.47;;;9.70;100.00
55277;BME280;41136;51.478;-2.610;2024-03-29T02:31:33;97273.48;;;9.82;100.00
55277;BME280;41136;51.478;-2.610;2024-03-29T02:33:58;97266.14;;;9.58;100.00
55277;BME280;41136;51.478;-2.610;2024-03-29T02:36:23;97264.11;;;9.98;100.00
55277;BME280;41136;51.478;-2.610;2024-03-29T02:38:49;97261.21;;;9.75;100.00
55277;BME280;41136;51.478;-2.610;2024-03-29T02:41:14;97258.57;;;10.02;100.00
55277;BME280;41136;51.478;-2.610;2024-03-29T02:43:40;97260.56;;;9.98;100.00
55277;BME280;41136;51.478;-2.610;2024-03-29T02:46:05;97262.20;;;9.65;100.00
55277;BME280;41136;51.478;-2.610;2024-03-29T02:48:30;97267.85;;;9.99;100.00
55277;BME280;41136;51.478;-2.610;2024-03-29T02:50:56;97267.08;;;10.17;100.00
55277;BME280;41136;51.478;-2.610;2024-03-29T02:53:21;97273.14;;;10.05;100.00
55277;BME280;41136;51.478;-2.610;2024-03-29T02:55:47;97272.80;;;10.25;100.00
55277;BME280;41136;51.478;-2.610;2024-03-29T02:58:12;97275.90;;;10.14;100.00
55277;BME280;41136;51.478;-2.610;2024-03-29T03:00:37;97283.65;;;9.77;100.00
55277;BME280;41136;51.478;-2.610;2024-03-29T03:03:03;97282.70;;;10.15;100.00
55277;BME280;41136;51.478;-2.610;2024-03-29T03:05:29;97283.28;;;10.13;100.00
55277;BME280;41136;51.478;-2.610;2024-03-29T03:07:53;97288.20;;;9.89;100.00
55277;BME280;41136;51.478;-2.610;2024-03-29T03:10:19;97288.03;;;9.66;100.00
55277;BME280;41136;51.478;-2.610;2024-03-29T03:12:44;97288.91;;;9.73;100.00
55277;BME280;41136;51.478;-2.610;2024-03-29T03:15:10;97292.44;;;9.93;100.00
55277;BME280;41136;51.478;-2.610;2024-03-29T03:17:35;97291.84;;;10.27;100.00
55277;BME280;41136;51.478;-2.610;2024-03-29T03:20:00;97291.54;;;9.71;100.00
55277;BME280;41136;51.478;-2.610;2024-03-29T03:22:26;97287.94;;;9.58;100.00
55277;BME280;41136;51.478;-2.610;2024-03-29T03:24:51;97290.47;;;9.98;100.00
55277;BME280;41136;51.478;-2.610;2024-03-29T03:27:17;97287.40;;;9.69;100.00
55277;BME280;41136;51.478;-2.610;2024-03-29T03:29:42;97285.03;;;9.69;100.00
55277;BME280;41136;51.478;-2.610;2024-03-29T03:32:07;97286.06;;;9.69;100.00
55277;BME280;41136;51.478;-2.610;2024-03-29T03:34:33;97287.70;;;9.85;100.00
55277;BME280;41136;51.478;-2.610;2024-03-29T03:36:58;97289.76;;;9.94;100.00
55277;BME280;41136;51.478;-2.610;2024-03-29T03:39:23;97292.72;;;10.03;100.00
55277;BME280;41136;51.478;-2.610;2024-03-29T03:41:49;97290.86;;;10.06;100.00
55277;BME280;41136;51.478;-2.610;2024-03-29T03:44:14;97290.17;;;9.94;100.00
55277;BME280;41136;51.478;-2.610;2024-03-29T03:46:39;97289.87;;;10.10;100.00
55277;BME280;41136;51.478;-2.610;2024-03-29T03:49:05;97290.31;;;10.32;100.00
55277;BME280;41136;51.478;-2.610;2024-03-29T03:51:30;97294.40;;;10.34;100.00
55277;BME280;41136;51.478;-2.610;2024-03-29T03:53:55;97289.65;;;10.02;100.00
55277;BME280;41136;51.478;-2.610;2024-03-29T03:56:21;97285.92;;;10.07;100.00
55277;BME280;41136;51.478;-2.610;2024-03-29T03:58:46;97284.89;;;10.21;100.00
55277;BME280;41136;51.478;-2.610;2024-03-29T04:21:08;97279.25;;;10.15;100.00
55277;BME280;41136;51.478;-2.610;2024-03-29T04:26:09;97287.54;;;10.42;100.00
55277;BME280;41136;51.478;-2.610;2024-03-29T04:28:35;97286.10;;;10.35;100.00
55277;BME280;41136;51.478;-2.610;2024-03-29T04:31:01;97283.97;;;9.89;100.00
55277;BME280;41136;51.478;-2.610;2024-03-29T04:34:47;97281.85;;;10.20;100.00
55277;BME280;41136;51.478;-2.610;2024-03-29T04:37:11;97285.29;;;10.17;100.00
55277;BME280;41136;51.478;-2.610;2024-03-29T04:39:36;97285.40;;;10.09;100.00
55277;BME280;41136;51.478;-2.610;2024-03-29T04:42:01;97288.16;;;10.04;100.00
55277;BME280;41136;51.478;-2.610;2024-03-29T04:44:28;97286.20;;;10.34;100.00
55277;BME280;41136;51.478;-2.610;2024-03-29T04:46:52;97286.32;;;10.30;100.00
55277;BME280;41136;51.478;-2.610;2024-03-29T04:49:19;97290.51;;;10.36;100.00
55277;BME280;41136;51.478;-2.610;2024-03-29T04:51:43;97284.98;;;10.25;100.00
55277;BME280;41136;51.478;-2.610;2024-03-29T04:54:08;97282.88;;;10.04;100.00
55277;BME280;41136;51.478;-2.610;2024-03-29T04:56:34;97282.36;;;9.97;100.00
55277;BME280;41136;51.478;-2.610;2024-03-29T04:58:59;97285.04;;;10.28;100.00
55277;BME280;41136;51.478;-2.610;2024-03-29T05:01:24;97280.87;;;10.10;100.00
55277;BME280;41136;51.478;-2.610;2024-03-29T05:03:50;97284.39;;;10.36;100.00
55277;BME280;41136;51.478;-2.610;2024-03-29T05:06:15;97287.85;;;10.17;100.00
55277;BME280;41136;51.478;-2.610;2024-03-29T05:08:40;97286.50;;;10.16;100.00
55277;BME280;41136;51.478;-2.610;2024-03-29T05:11:06;97290.06;;;10.38;100.00
55277;BME280;41136;51.478;-2.610;2024-03-29T05:13:31;97289.52;;;10.68;100.00
55277;BME280;41136;51.478;-2.610;2024-03-29T05:15:56;97287.52;;;10.41;100.00
55277;BME280;41136;51.478;-2.610;2024-03-29T05:18:22;97284.62;;;10.80;100.00
55277;BME280;41136;51.478;-2.610;2024-03-29T05:20:47;97286.44;;;10.44;100.00
55277;BME280;41136;51.478;-2.610;2024-03-29T05:23:13;97277.89;;;10.72;100.00
55277;BME280;41136;51.478;-2.610;2024-03-29T05:25:38;97280.89;;;10.02;100.00
55277;BME280;41136;51.478;-2.610;2024-03-29T05:28:04;97281.78;;;10.03;100.00
55277;BME280;41136;51.478;-2.610;2024-03-29T05:30:29;97279.90;;;10.26;100.00
55277;BME280;41136;51.478;-2.610;2024-03-29T05:32:54;97280.13;;;10.27;100.00
55277;BME280;41136;51.478;-2.610;2024-03-29T05:35:19;97278.34;;;10.25;100.00
55277;BME280;41136;51.478;-2.610;2024-03-29T05:37:44;97276.10;;;9.84;100.00
55277;BME280;41136;51.478;-2.610;2024-03-29T05:40:11;97275.26;;;9.64;100.00
55277;BME280;41136;51.478;-2.610;2024-03-29T05:42:35;97273.26;;;10.09;100.00
55277;BME280;41136;51.478;-2.610;2024-03-29T05:45:00;97272.90;;;10.15;100.00
55277;BME280;41136;51.478;-2.610;2024-03-29T05:47:26;97271.51;;;10.15;100.00
55277;BME280;41136;51.478;-2.610;2024-03-29T05:49:53;97267.96;;;10.39;100.00
55277;BME280;41136;51.478;-2.610;2024-03-29T05:52:17;97272.73;;;10.39;100.00
55277;BME280;41136;51.478;-2.610;2024-03-29T05:54:43;97273.19;;;9.45;100.00
55277;BME280;41136;51.478;-2.610;2024-03-29T05:57:07;97282.16;;;9.85;100.00
55277;BME280;41136;51.478;-2.610;2024-03-29T05:59:33;97287.36;;;9.65;100.00
55277;BME280;41136;51.478;-2.610;2024-03-29T06:01:58;97289.12;;;10.31;100.00
55277;BME280;41136;51.478;-2.610;2024-03-29T06:04:23;97289.25;;;10.28;100.00
55277;BME280;41136;51.478;-2.610;2024-03-29T06:06:49;97294.48;;;10.08;100.00
55277;BME280;41136;51.478;-2.610;2024-03-29T06:09:14;97294.43;;;10.58;100.00
55277;BME280;41136;51.478;-2.610;2024-03-29T06:11:39;97296.32;;;10.01;100.00
55277;BME280;41136;51.478;-2.610;2024-03-29T06:14:05;97294.78;;;10.30;100.00
55277;BME280;41136;51.478;-2.610;2024-03-29T06:16:30;97291.60;;;10.94;100.00
55277;BME280;41136;51.478;-2.610;2024-03-29T06:18:55;97292.27;;;10.54;100.00
55277;BME280;41136;51.478;-2.610;2024-03-29T06:21:21;97291.43;;;10.54;100.00
55277;BME280;41136;51.478;-2.610;2024-03-29T06:23:46;97284.71;;;10.43;100.00
55277;BME280;41136;51.478;-2.610;2024-03-29T06:26:11;97289.73;;;10.77;100.00
55277;BME280;41136;51.478;-2.610;2024-03-29T06:28:37;97285.95;;;10.55;100.00
55277;BME280;41136;51.478;-2.610;2024-03-29T06:31:02;97290.17;;;11.42;100.00
55277;BME280;41136;51.478;-2.610;2024-03-29T06:33:28;97291.14;;;10.17;100.00
55277;BME280;41136;51.478;-2.610;2024-03-29T06:35:54;97299.96;;;10.09;100.00
55277;BME280;41136;51.478;-2.610;2024-03-29T06:38:18;97295.23;;;10.80;100.00
55277;BME280;41136;51.478;-2.610;2024-03-29T06:40:44;97295.22;;;11.01;100.00
55277;BME280;41136;51.478;-2.610;2024-03-29T06:43:09;97297.50;;;11.13;100.00
55277;BME280;41136;51.478;-2.610;2024-03-29T06:45:34;97298.87;;;10.93;100.00
55277;BME280;41136;51.478;-2.610;2024-03-29T06:48:00;97300.23;;;11.54;100.00
55277;BME280;41136;51.478;-2.610;2024-03-29T06:50:25;97298.02;;;11.38;100.00
55277;BME280;41136;51.478;-2.610;2024-03-29T06:52:50;97305.66;;;11.44;100.00
55277;BME280;41136;51.478;-2.610;2024-03-29T06:55:16;97308.74;;;11.63;100.00
55277;BME280;41136;51.478;-2.610;2024-03-29T06:57:41;97306.92;;;11.35;100.00
55277;BME280;41136;51.478;-2.610;2024-03-29T07:00:08;97311.01;;;10.33;100.00
55277;BME280;41136;51.478;-2.610;2024-03-29T07:02:32;97316.66;;;11.24;100.00
55277;BME280;41136;51.478;-2.610;2024-03-29T07:04:57;97317.61;;;10.69;100.00
55277;BME280;41136;51.478;-2.610;2024-03-29T07:07:22;97321.51;;;11.13;100.00
55277;BME280;41136;51.478;-2.610;2024-03-29T07:09:48;97327.66;;;11.16;100.00
55277;BME280;41136;51.478;-2.610;2024-03-29T07:12:13;97327.63;;;11.21;100.00
55277;BME280;41136;51.478;-2.610;2024-03-29T07:14:38;97333.84;;;10.90;100.00
55277;BME280;41136;51.478;-2.610;2024-03-29T07:17:04;97340.19;;;10.67;100.00
55277;BME280;41136;51.478;-2.610;2024-03-29T07:19:29;97347.32;;;11.10;100.00
55277;BME280;41136;51.478;-2.610;2024-03-29T07:21:55;97344.72;;;10.96;100.00
55277;BME280;41136;51.478;-2.610;2024-03-29T07:24:21;97347.73;;;11.14;100.00
55277;BME280;41136;51.478;-2.610;2024-03-29T07:26:45;97350.17;;;10.92;100.00
55277;BME280;41136;51.478;-2.610;2024-03-29T07:29:11;97358.43;;;10.92;100.00
55277;BME280;41136;51.478;-2.610;2024-03-29T07:31:36;97360.81;;;10.40;100.00
55277;BME280;41136;51.478;-2.610;2024-03-29T07:34:01;97373.45;;;10.60;100.00
55277;BME280;41136;51.478;-2.610;2024-03-29T07:36:27;97371.25;;;10.72;100.00
55277;BME280;41136;51.478;-2.610;2024-03-29T07:38:52;97371.40;;;11.23;100.00
55277;BME280;41136;51.478;-2.610;2024-03-29T07:41:17;97371.09;;;11.18;100.00
55277;BME280;41136;51.478;-2.610;2024-03-29T07:43:51;97384.89;;;10.70;100.00
55277;BME280;41136;51.478;-2.610;2024-03-29T07:46:08;97387.12;;;10.33;100.00
55277;BME280;41136;51.478;-2.610;2024-03-29T07:48:34;97390.12;;;10.63;100.00
55277;BME280;41136;51.478;-2.610;2024-03-29T07:50:59;97392.45;;;11.28;100.00
55277;BME280;41136;51.478;-2.610;2024-03-29T07:53:24;97395.05;;;11.59;100.00
55277;BME280;41136;51.478;-2.610;2024-03-29T07:55:49;97396.60;;;11.45;100.00
55277;BME280;41136;51.478;-2.610;2024-03-29T07:58:15;97397.05;;;11.78;100.00
55277;BME280;41136;51.478;-2.610;2024-03-29T08:00:40;97397.76;;;11.69;100.00
55277;BME280;41136;51.478;-2.610;2024-03-29T08:03:06;97405.52;;;11.45;100.00
55277;BME280;41136;51.478;-2.610;2024-03-29T08:05:31;97410.49;;;11.11;100.00
55277;BME280;41136;51.478;-2.610;2024-03-29T08:07:56;97410.93;;;11.46;100.00
55277;BME280;41136;51.478;-2.610;2024-03-29T08:10:22;97409.24;;;11.98;100.00
55277;BME280;41136;51.478;-2.610;2024-03-29T08:12:47;97419.02;;;12.13;100.00
55277;BME280;41136;51.478;-2.610;2024-03-29T08:15:12;97425.11;;;11.94;100.00
55277;BME280;41136;51.478;-2.610;2024-03-29T08:17:37;97426.94;;;12.39;100.00
55277;BME280;41136;51.478;-2.610;2024-03-29T08:20:03;97427.92;;;11.70;100.00
55277;BME280;41136;51.478;-2.610;2024-03-29T08:22:28;97434.30;;;11.92;100.00
55277;BME280;41136;51.478;-2.610;2024-03-29T08:24:54;97437.78;;;12.05;100.00
55277;BME280;41136;51.478;-2.610;2024-03-29T08:27:19;97438.99;;;11.71;100.00
55277;BME280;41136;51.478;-2.610;2024-03-29T08:29:44;97442.94;;;12.24;100.00
55277;BME280;41136;51.478;-2.610;2024-03-29T08:32:09;97446.68;;;12.17;100.00
55277;BME280;41136;51.478;-2.610;2024-03-29T08:34:35;97452.53;;;12.30;100.00
55277;BME280;41136;51.478;-2.610;2024-03-29T08:37:00;97448.13;;;12.68;100.00
55277;BME280;41136;51.478;-2.610;2024-03-29T08:39:26;97449.31;;;12.27;100.00
55277;BME280;41136;51.478;-2.610;2024-03-29T08:41:51;97453.03;;;12.26;100.00
55277;BME280;41136;51.478;-2.610;2024-03-29T08:44:16;97454.37;;;12.57;100.00
55277;BME280;41136;51.478;-2.610;2024-03-29T08:46:41;97456.75;;;12.41;100.00
55277;BME280;41136;51.478;-2.610;2024-03-29T08:49:07;97462.05;;;12.24;100.00
55277;BME280;41136;51.478;-2.610;2024-03-29T08:51:32;97463.70;;;12.04;100.00
55277;BME280;41136;51.478;-2.610;2024-03-29T08:53:57;97468.91;;;12.60;100.00
55277;BME280;41136;51.478;-2.610;2024-03-29T08:56:23;97467.81;;;12.47;100.00
55277;BME280;41136;51.478;-2.610;2024-03-29T08:58:48;97472.66;;;12.63;100.00
55277;BME280;41136;51.478;-2.610;2024-03-29T09:01:14;97479.98;;;12.54;100.00
55277;BME280;41136;51.478;-2.610;2024-03-29T09:03:39;97477.93;;;13.24;100.00
55277;BME280;41136;51.478;-2.610;2024-03-29T09:06:04;97481.38;;;12.37;100.00
55277;BME280;41136;51.478;-2.610;2024-03-29T09:08:29;97487.55;;;12.74;100.00
55277;BME280;41136;51.478;-2.610;2024-03-29T09:10:55;97483.40;;;12.96;100.00
55277;BME280;41136;51.478;-2.610;2024-03-29T09:13:20;97483.54;;;13.30;100.00
55277;BME280;41136;51.478;-2.610;2024-03-29T09:15:45;97490.11;;;12.69;100.00
55277;BME280;41136;51.478;-2.610;2024-03-29T09:18:11;97484.67;;;13.18;100.00
55277;BME280;41136;51.478;-2.610;2024-03-29T09:20:36;97486.85;;;13.68;100.00
55277;BME280;41136;51.478;-2.610;2024-03-29T09:23:01;97491.19;;;13.42;100.00
55277;BME280;41136;51.478;-2.610;2024-03-29T09:25:26;97497.09;;;13.58;100.00
55277;BME280;41136;51.478;-2.610;2024-03-29T09:27:52;97497.94;;;13.48;100.00
55277;BME280;41136;51.478;-2.610;2024-03-29T09:30:17;97489.96;;;13.65;100.00
55277;BME280;41136;51.478;-2.610;2024-03-29T09:32:43;97493.52;;;13.23;100.00
55277;BME280;41136;51.478;-2.610;2024-03-29T09:35:08;97494.57;;;12.47;100.00
55277;BME280;41136;51.478;-2.610;2024-03-29T09:37:33;97502.48;;;12.22;100.00
55277;BME280;41136;51.478;-2.610;2024-03-29T09:39:58;97504.37;;;12.20;100.00
55277;BME280;41136;51.478;-2.610;2024-03-29T09:42:24;97509.17;;;11.93;100.00
55277;BME280;41136;51.478;-2.610;2024-03-29T09:44:50;97517.13;;;11.79;100.00
55277;BME280;41136;51.478;-2.610;2024-03-29T09:47:17;97530.30;;;12.73;100.00
55277;BME280;41136;51.478;-2.610;2024-03-29T09:49:41;97518.45;;;12.23;100.00
55277;BME280;41136;51.478;-2.610;2024-03-29T09:52:06;97520.40;;;11.71;100.00
55277;BME280;41136;51.478;-2.610;2024-03-29T09:54:30;97517.53;;;11.74;100.00
55277;BME280;41136;51.478;-2.610;2024-03-29T09:56:57;97528.55;;;12.25;100.00
55277;BME280;41136;51.478;-2.610;2024-03-29T09:59:21;97538.35;;;12.58;100.00
55277;BME280;41136;51.478;-2.610;2024-03-29T10:01:47;97547.53;;;11.48;100.00
55277;BME280;41136;51.478;-2.610;2024-03-29T10:04:12;97552.18;;;11.51;100.00
55277;BME280;41136;51.478;-2.610;2024-03-29T10:06:38;97556.04;;;11.84;100.00
55277;BME280;41136;51.478;-2.610;2024-03-29T10:09:02;97562.97;;;11.93;100.00
55277;BME280;41136;51.478;-2.610;2024-03-29T10:11:27;97548.33;;;12.20;100.00
55277;BME280;41136;51.478;-2.610;2024-03-29T10:13:53;97554.97;;;12.31;100.00
55277;BME280;41136;51.478;-2.610;2024-03-29T10:16:19;97553.93;;;12.46;100.00
55277;BME280;41136;51.478;-2.610;2024-03-29T10:18:43;97550.49;;;12.35;100.00
55277;BME280;41136;51.478;-2.610;2024-03-29T10:21:09;97558.43;;;12.35;100.00
55277;BME280;41136;51.478;-2.610;2024-03-29T10:23:35;97561.85;;;12.51;100.00
55277;BME280;41136;51.478;-2.610;2024-03-29T10:25:59;97558.99;;;12.43;100.00
55277;BME280;41136;51.478;-2.610;2024-03-29T10:28:30;97564.40;;;12.69;100.00
55277;BME280;41136;51.478;-2.610;2024-03-29T10:30:50;97563.19;;;11.82;100.00
55277;BME280;41136;51.478;-2.610;2024-03-29T10:33:16;97556.21;;;12.36;100.00
55277;BME280;41136;51.478;-2.610;2024-03-29T10:35:41;97560.17;;;12.38;100.00
55277;BME280;41136;51.478;-2.610;2024-03-29T10:38:06;97557.11;;;12.70;100.00
55277;BME280;41136;51.478;-2.610;2024-03-29T10:40:32;97555.45;;;12.30;100.00
55277;BME280;41136;51.478;-2.610;2024-03-29T10:42:57;97557.46;;;12.46;100.00
55277;BME280;41136;51.478;-2.610;2024-03-29T10:45:22;97559.43;;;12.06;100.00
55277;BME280;41136;51.478;-2.610;2024-03-29T10:47:48;97556.03;;;11.75;100.00
55277;BME280;41136;51.478;-2.610;2024-03-29T10:50:13;97555.38;;;12.74;100.00
55277;BME280;41136;51.478;-2.610;2024-03-29T10:52:39;97555.37;;;12.68;100.00
55277;BME280;41136;51.478;-2.610;2024-03-29T10:55:04;97555.26;;;12.85;100.00
55277;BME280;41136;51.478;-2.610;2024-03-29T10:57:29;97553.93;;;12.61;100.00
55277;BME280;41136;51.478;-2.610;2024-03-29T11:00:02;97553.40;;;12.81;100.00
55277;BME280;41136;51.478;-2.610;2024-03-29T11:02:33;97558.67;;;13.08;100.00
55277;BME280;41136;51.478;-2.610;2024-03-29T11:04:46;97558.12;;;12.95;100.00
55277;BME280;41136;51.478;-2.610;2024-03-29T11:07:17;97552.91;;;12.70;100.00
55277;BME280;41136;51.478;-2.610;2024-03-29T11:09:38;97553.88;;;13.28;100.00
55277;BME280;41136;51.478;-2.610;2024-03-29T11:12:04;97552.61;;;13.16;100.00
55277;BME280;41136;51.478;-2.610;2024-03-29T11:14:34;97556.60;;;13.29;100.00
55277;BME280;41136;51.478;-2.610;2024-03-29T11:16:53;97550.17;;;12.94;100.00
55277;BME280;41136;51.478;-2.610;2024-03-29T11:19:18;97554.00;;;12.95;100.00
55277;BME280;41136;51.478;-2.610;2024-03-29T11:21:44;97560.19;;;12.72;100.00
55277;BME280;41136;51.478;-2.610;2024-03-29T11:24:10;97567.27;;;13.30;100.00
55277;BME280;41136;51.478;-2.610;2024-03-29T11:26:34;97561.61;;;12.19;100.00
55277;BME280;41136;51.478;-2.610;2024-03-29T11:29:00;97568.42;;;12.61;100.00
55277;BME280;41136;51.478;-2.610;2024-03-29T11:31:26;97568.11;;;12.92;100.00
55277;BME280;41136;51.478;-2.610;2024-03-29T11:33:51;97577.95;;;12.45;100.00
55277;BME280;41136;51.478;-2.610;2024-03-29T11:36:18;97570.74;;;12.88;100.00
55277;BME280;41136;51.478;-2.610;2024-03-29T11:38:42;97569.25;;;12.81;100.00
55277;BME280;41136;51.478;-2.610;2024-03-29T11:41:10;97567.23;;;13.14;100.00
55277;BME280;41136;51.478;-2.610;2024-03-29T11:43:33;97558.29;;;12.62;100.00
55277;BME280;41136;51.478;-2.610;2024-03-29T11:45:58;97564.28;;;12.56;100.00
55277;BME280;41136;51.478;-2.610;2024-03-29T11:48:24;97566.95;;;12.62;100.00
55277;BME280;41136;51.478;-2.610;2024-03-29T11:50:48;97574.01;;;12.40;100.00
55277;BME280;41136;51.478;-2.610;2024-03-29T11:53:14;97576.06;;;12.39;100.00
55277;BME280;41136;51.478;-2.610;2024-03-29T11:55:39;97576.79;;;11.97;100.00
55277;BME280;41136;51.478;-2.610;2024-03-29T11:58:04;97580.12;;;12.26;100.00
55277;BME280;41136;51.478;-2.610;2024-03-29T12:00:29;97578.02;;;11.89;100.00
55277;BME280;41136;51.478;-2.610;2024-03-29T12:02:55;97576.44;;;11.51;100.00
55277;BME280;41136;51.478;-2.610;2024-03-29T12:05:20;97580.52;;;11.40;100.00
55277;BME280;41136;51.478;-2.610;2024-03-29T12:07:46;97575.94;;;11.97;100.00
55277;BME280;41136;51.478;-2.610;2024-03-29T12:10:12;97581.03;;;12.65;100.00
55277;BME280;41136;51.478;-2.610;2024-03-29T12:12:36;97571.90;;;12.18;100.00
55277;BME280;41136;51.478;-2.610;2024-03-29T12:15:02;97584.58;;;11.95;100.00
55277;BME280;41136;51.478;-2.610;2024-03-29T12:17:27;97578.00;;;13.11;100.00
55277;BME280;41136;51.478;-2.610;2024-03-29T12:19:58;97577.52;;;12.36;100.00
55277;BME280;41136;51.478;-2.610;2024-03-29T12:22:18;97572.53;;;12.67;100.00
55277;BME280;41136;51.478;-2.610;2024-03-29T12:24:43;97574.12;;;12.66;100.00
55277;BME280;41136;51.478;-2.610;2024-03-29T12:27:09;97574.31;;;12.67;100.00
55277;BME280;41136;51.478;-2.610;2024-03-29T12:29:34;97572.48;;;12.64;100.00
55277;BME280;41136;51.478;-2.610;2024-03-29T12:32:00;97569.83;;;12.59;100.00
55277;BME280;41136;51.478;-2.610;2024-03-29T12:34:25;97581.40;;;12.05;99.22
55277;BME280;41136;51.478;-2.610;2024-03-29T12:36:50;97585.04;;;12.54;100.00
55277;BME280;41136;51.478;-2.610;2024-03-29T12:39:17;97585.42;;;12.33;100.00
55277;BME280;41136;51.478;-2.610;2024-03-29T12:41:41;97592.88;;;12.41;100.00
55277;BME280;41136;51.478;-2.610;2024-03-29T12:44:06;97583.72;;;12.69;100.00
55277;BME280;41136;51.478;-2.610;2024-03-29T12:46:31;97580.40;;;13.52;98.34
55277;BME280;41136;51.478;-2.610;2024-03-29T12:48:58;97577.99;;;13.20;96.58
55277;BME280;41136;51.478;-2.610;2024-03-29T12:51:22;97584.71;;;12.87;98.64
55277;BME280;41136;51.478;-2.610;2024-03-29T12:53:47;97580.21;;;13.21;98.01
55277;BME280;41136;51.478;-2.610;2024-03-29T12:56:13;97578.22;;;12.98;97.84
55277;BME280;41136;51.478;-2.610;2024-03-29T12:58:39;97592.73;;;13.45;100.00
55277;BME280;41136;51.478;-2.610;2024-03-29T13:01:04;97588.39;;;12.97;100.00